Time;durP1;ratioP1;P1;durP2;ratioP2;P2;SDS_P1;SDS_P2;PMS_P1;PMS_P2;Temp;Humidity;BMP_temperature;BMP_pressure;BME280_temperature;BME280_humidity;BME280_pressure;Samples;Min_cycle;Max_cycle;Signal;HPM_P1;HPM_P2
2023/12/17 00:01:09;;;;;;;7.57;3.58;;;9.30;84.00;;;;;;7399833;19;19985;-73
2023/12/17 00:03:35;;;;;;;6.13;3.22;;;9.30;83.60;;;;;;7402413;19;19923;-72
2023/12/17 00:06:01;;;;;;;6.72;3.15;;;9.20;84.10;;;;;;7397446;19;19943;-73
2023/12/17 00:08:26;;;;;;;6.85;3.30;;;9.20;84.60;;;;;;7396248;19;19906;-73
2023/12/17 00:10:52;;;;;;;6.78;2.50;;;9.20;85.20;;;;;;7401425;19;19914;-73
2023/12/17 00:13:19;;;;;;;8.15;2.70;;;9.30;85.80;;;;;;7377274;19;20315;-73
2023/12/17 00:15:46;;;;;;;6.97;3.20;;;9.40;85.90;;;;;;7398263;19;19919;-72
2023/12/17 00:18:13;;;;;;;7.47;3.50;;;9.40;84.00;;;;;;7401521;19;19910;-74
2023/12/17 00:20:39;;;;;;;7.60;2.85;;;9.30;84.00;;;;;;7394594;19;19929;-71
2023/12/17 00:23:05;;;;;;;7.00;3.67;;;9.40;84.70;;;;;;7381170;19;19915;-74
2023/12/17 00:25:31;;;;;;;8.65;3.33;;;9.40;84.40;;;;;;7399558;19;19914;-72
2023/12/17 00:27:57;;;;;;;8.10;2.60;;;9.30;84.50;;;;;;7398590;19;20367;-72
2023/12/17 00:30:23;;;;;;;8.23;2.47;;;9.30;84.60;;;;;;7401686;19;20664;-73
2023/12/17 00:32:49;;;;;;;6.20;3.13;;;9.20;84.90;;;;;;7400487;19;19981;-72
2023/12/17 00:35:15;;;;;;;6.15;3.30;;;9.20;85.40;;;;;;7395544;19;19914;-72
2023/12/17 00:37:41;;;;;;;7.57;3.20;;;9.10;85.70;;;;;;7403521;19;20319;-72
2023/12/17 00:40:08;;;;;;;8.48;2.63;;;9.00;86.10;;;;;;7398907;19;19910;-72
2023/12/17 00:42:34;;;;;;;8.13;3.40;;;8.90;86.80;;;;;;7404715;19;19922;-72
2023/12/17 00:45:00;;;;;;;6.53;3.28;;;8.90;88.00;;;;;;7405438;19;19925;-72
2023/12/17 00:47:25;;;;;;;5.90;2.95;;;8.90;87.80;;;;;;7401164;19;19927;-72
2023/12/17 00:49:52;;;;;;;6.85;3.50;;;8.90;88.10;;;;;;7403694;19;19919;-72
2023/12/17 00:52:20;;;;;;;6.97;3.45;;;8.90;88.70;;;;;;7404005;19;20371;-73
2023/12/17 00:54:46;;;;;;;8.15;3.25;;;9.00;89.00;;;;;;7402730;19;19914;-73
2023/12/17 00:57:12;;;;;;;10.20;3.88;;;9.00;88.40;;;;;;7400918;19;19929;-71
2023/12/17 00:59:38;;;;;;;7.72;2.90;;;9.00;88.40;;;;;;7406704;19;20381;-73
2023/12/17 01:02:04;;;;;;;11.55;4.53;;;9.00;87.90;;;;;;7406013;19;19922;-72
2023/12/17 01:04:29;;;;;;;7.28;3.58;;;9.10;86.80;;;;;;7403998;19;20271;-72
2023/12/17 01:06:55;;;;;;;8.23;3.22;;;9.10;86.30;;;;;;7407525;19;20244;-72
2023/12/17 01:09:21;;;;;;;9.85;3.28;;;9.00;86.00;;;;;;7404950;19;19930;-72
2023/12/17 01:11:46;;;;;;;6.35;2.30;;;9.00;86.10;;;;;;7404624;19;19939;-71
2023/12/17 01:14:12;;;;;;;7.28;2.50;;;9.00;86.40;;;;;;7399408;19;19974;-72
2023/12/17 01:16:38;;;;;;;6.22;3.08;;;9.00;84.80;;;;;;7404690;19;19921;-72
2023/12/17 01:19:04;;;;;;;5.90;2.88;;;9.00;84.60;;;;;;7403279;19;19941;-72
2023/12/17 01:21:30;;;;;;;9.18;3.90;;;9.00;84.00;;;;;;7400881;19;19918;-72
2023/12/17 01:23:57;;;;;;;6.28;2.60;;;9.00;83.80;;;;;;7398404;19;19926;-72
2023/12/17 01:26:26;;;;;;;;;;;8.90;84.40;;;;;;7400655;19;19957;-73
2023/12/17 01:28:53;;;;;;;5.82;2.78;;;8.90;84.40;;;;;;7400487;19;19947;-72
2023/12/17 01:31:19;;;;;;;5.28;2.58;;;8.90;83.50;;;;;;7400683;19;19915;-72
2023/12/17 01:33:45;;;;;;;5.03;2.47;;;8.90;83.20;;;;;;7403966;19;19919;-72
2023/12/17 01:36:10;;;;;;;6.00;2.72;;;8.90;84.00;;;;;;7402864;19;20335;-72
2023/12/17 01:38:36;;;;;;;8.32;2.83;;;8.80;83.80;;;;;;7397359;19;19919;-72
2023/12/17 01:41:02;;;;;;;6.57;2.85;;;8.90;85.20;;;;;;7400604;19;19939;-72
2023/12/17 01:43:28;;;;;;;6.70;2.67;;;8.90;83.20;;;;;;7404274;19;20082;-72
2023/12/17 01:45:54;;;;;;;5.65;2.90;;;8.80;83.70;;;;;;7397138;19;19929;-72
2023/12/17 01:48:25;;;;;;;6.22;2.78;;;8.80;84.00;;;;;;7401010;19;19918;-71
2023/12/17 01:50:52;;;;;;;5.57;2.20;;;8.80;83.90;;;;;;7402672;19;20197;-72
2023/12/17 01:53:21;;;;;;;6.43;2.70;;;8.80;84.60;;;;;;7379510;19;20316;-72
2023/12/17 01:55:49;;;;;;;6.00;2.15;;;8.80;84.50;;;;;;7401594;19;20390;-73
2023/12/17 01:58:15;;;;;;;6.18;2.35;;;8.80;84.10;;;;;;7401266;19;19966;-72
2023/12/17 02:00:42;;;;;;;4.72;2.80;;;8.80;85.00;;;;;;7401309;19;19958;-73
2023/12/17 02:03:07;;;;;;;8.15;2.80;;;8.70;85.00;;;;;;7402809;19;19915;-73
2023/12/17 02:05:34;;;;;;;7.60;2.72;;;8.60;86.00;;;;;;7400224;19;19918;-73
2023/12/17 02:08:03;;;;;;;7.45;2.55;;;8.60;86.40;;;;;;7403344;19;20438;-72
2023/12/17 02:10:30;;;;;;;5.63;2.38;;;8.60;86.80;;;;;;7400034;19;19936;-72
2023/12/17 02:12:58;;;;;;;6.63;1.90;;;8.50;87.10;;;;;;7398494;19;19939;-73
2023/12/17 02:15:24;;;;;;;6.82;2.63;;;8.50;87.00;;;;;;7401225;19;20042;-73
2023/12/17 02:17:50;;;;;;;4.93;2.25;;;8.50;87.00;;;;;;7397052;19;19941;-73
2023/12/17 02:20:15;;;;;;;5.35;2.03;;;8.50;87.80;;;;;;7398197;19;19956;-72
2023/12/17 02:22:43;;;;;;;5.10;1.90;;;8.50;87.30;;;;;;7403953;19;19919;-73
2023/12/17 02:25:10;;;;;;;4.82;2.38;;;8.50;87.50;;;;;;7402370;19;20468;-72
2023/12/17 02:27:36;;;;;;;7.18;2.90;;;8.40;87.30;;;;;;7409605;19;19915;-72
2023/12/17 02:30:02;;;;;;;7.35;2.70;;;8.40;87.50;;;;;;7406374;19;19922;-72
2023/12/17 02:32:29;;;;;;;5.25;2.35;;;8.30;87.20;;;;;;7407711;19;19940;-72
2023/12/17 02:34:56;;;;;;;6.25;2.70;;;8.30;87.40;;;;;;7404594;19;19919;-70
2023/12/17 02:37:21;;;;;;;6.47;1.90;;;8.30;88.00;;;;;;7403928;19;21043;-71
2023/12/17 02:39:47;;;;;;;3.88;1.98;;;8.50;87.50;;;;;;7407755;19;19926;-72
2023/12/17 02:42:13;;;;;;;5.47;1.70;;;8.60;86.60;;;;;;7405940;19;19954;-72
2023/12/17 02:44:39;;;;;;;4.47;1.65;;;8.60;85.20;;;;;;7404926;19;19922;-72
2023/12/17 02:47:05;;;;;;;4.75;2.28;;;8.60;84.00;;;;;;7386488;19;19918;-73
2023/12/17 02:49:34;;;;;;;3.78;1.85;;;8.60;85.30;;;;;;7405102;19;19928;-72
2023/12/17 02:51:59;;;;;;;5.60;1.90;;;8.60;85.70;;;;;;7406658;19;20354;-72
2023/12/17 02:54:25;;;;;;;5.50;2.08;;;8.60;84.30;;;;;;7405436;19;19914;-72
2023/12/17 02:56:51;;;;;;;3.83;1.85;;;8.60;84.20;;;;;;7406094;19;19925;-72
2023/12/17 02:59:17;;;;;;;4.68;1.90;;;8.50;83.80;;;;;;7407667;19;20001;-73
2023/12/17 03:01:43;;;;;;;5.68;2.03;;;8.40;84.50;;;;;;7408512;19;19919;-72
2023/12/17 03:04:10;;;;;;;4.32;1.80;;;8.30;85.90;;;;;;7403352;19;19922;-73
2023/12/17 03:06:37;;;;;;;4.00;1.52;;;8.50;86.50;;;;;;7406639;19;20557;-72
2023/12/17 03:09:03;;;;;;;4.70;1.65;;;8.50;85.70;;;;;;7404995;19;19918;-73
2023/12/17 03:11:30;;;;;;;4.07;1.48;;;8.50;84.50;;;;;;7406656;19;19946;-71
2023/12/17 03:13:56;;;;;;;4.93;1.63;;;8.50;84.70;;;;;;7406494;19;19923;-73
2023/12/17 03:16:23;;;;;;;5.25;2.30;;;8.50;84.50;;;;;;7405303;19;25273;-72
2023/12/17 03:18:48;;;;;;;;;;;8.50;83.90;;;;;;7407770;19;19914;-73
2023/12/17 03:21:15;;;;;;;4.10;1.50;;;8.60;83.40;;;;;;7400063;19;19925;-73
2023/12/17 03:23:41;;;;;;;5.75;1.60;;;8.60;81.90;;;;;;7402170;19;20339;-72
2023/12/17 03:26:07;;;;;;;5.75;1.92;;;8.50;81.10;;;;;;7404062;19;19917;-72
2023/12/17 03:28:33;;;;;;;7.45;2.60;;;8.50;80.60;;;;;;7404745;19;19914;-72
2023/12/17 03:30:59;;;;;;;5.68;2.28;;;8.50;79.40;;;;;;7408693;19;19922;-73
2023/12/17 03:33:24;;;;;;;5.05;2.85;;;8.60;77.30;;;;;;7404014;19;19918;-71
2023/12/17 03:35:50;;;;;;;6.43;2.70;;;8.60;77.20;;;;;;7403604;19;19919;-71
2023/12/17 03:38:16;;;;;;;4.28;2.78;;;8.60;76.70;;;;;;7405971;19;19925;-71
2023/12/17 03:40:42;;;;;;;7.57;2.30;;;8.70;76.00;;;;;;7407907;19;19938;-72
2023/12/17 03:43:08;;;;;;;5.97;2.72;;;8.60;76.00;;;;;;7406105;19;19918;-72
2023/12/17 03:45:35;;;;;;;7.13;3.05;;;8.60;75.80;;;;;;7386762;19;20586;-73
2023/12/17 03:48:01;;;;;;;6.05;2.88;;;8.50;75.90;;;;;;7405773;19;19952;-72
2023/12/17 03:50:27;;;;;;;5.90;3.10;;;8.60;75.80;;;;;;7405431;19;19914;-71
2023/12/17 03:52:53;;;;;;;7.28;4.03;;;8.50;75.30;;;;;;7403641;19;19921;-72
2023/12/17 03:55:20;;;;;;;7.25;3.17;;;8.40;76.10;;;;;;7398365;19;19919;-72
2023/12/17 03:57:47;;;;;;;6.95;3.45;;;8.40;77.40;;;;;;7384771;19;19922;-73
2023/12/17 04:00:13;;;;;;;7.60;3.50;;;8.30;77.70;;;;;;7403460;19;19925;-71
2023/12/17 04:02:39;;;;;;;6.25;3.55;;;8.30;78.30;;;;;;7405445;19;19915;-73
2023/12/17 04:05:06;;;;;;;5.60;2.65;;;8.30;78.90;;;;;;7401930;19;19946;-72
2023/12/17 04:07:32;;;;;;;5.78;2.63;;;8.30;78.70;;;;;;7402433;19;19914;-72
2023/12/17 04:09:58;;;;;;;6.72;2.38;;;8.20;79.60;;;;;;7403993;19;19929;-72
2023/12/17 04:12:24;;;;;;;4.40;2.30;;;8.10;80.20;;;;;;7403023;19;19933;-73
2023/12/17 04:14:49;;;;;;;5.38;2.00;;;8.10;81.10;;;;;;7405484;19;19929;-72
2023/12/17 04:17:15;;;;;;;4.72;2.10;;;8.00;82.20;;;;;;7377596;19;20362;-72
2023/12/17 04:19:41;;;;;;;5.03;2.30;;;8.00;82.70;;;;;;7403213;19;19958;-72
2023/12/17 04:22:07;;;;;;;6.00;2.10;;;8.10;82.80;;;;;;7399097;19;19935;-72
2023/12/17 04:24:32;;;;;;;5.18;2.38;;;8.00;83.00;;;;;;7404499;19;20285;-72
2023/12/17 04:26:58;;;;;;;5.53;2.25;;;8.00;83.30;;;;;;7403348;19;19946;-71
2023/12/17 04:29:24;;;;;;;6.95;3.38;;;8.00;83.40;;;;;;7400252;19;20003;-73
2023/12/17 04:31:50;;;;;;;4.88;2.85;;;7.90;83.10;;;;;;7404661;19;19922;-72
2023/12/17 04:34:16;;;;;;;3.92;1.88;;;7.90;83.50;;;;;;7399042;19;22622;-72
2023/12/17 04:36:42;;;;;;;6.78;3.00;;;7.90;83.80;;;;;;7405375;19;19919;-71
2023/12/17 04:39:12;;;;;;;4.55;1.98;;;8.00;84.30;;;;;;7400061;19;20625;-73
2023/12/17 04:41:38;;;;;;;4.32;2.28;;;8.00;84.70;;;;;;7399823;19;19911;-72
2023/12/17 04:44:04;;;;;;;4.80;1.95;;;8.00;84.60;;;;;;7400747;19;20319;-72
2023/12/17 04:46:30;;;;;;;5.60;1.90;;;7.90;84.60;;;;;;7403103;19;20343;-72
2023/12/17 04:48:56;;;;;;;5.68;2.53;;;7.80;85.50;;;;;;7400099;19;19939;-71
2023/12/17 04:51:23;;;;;;;4.88;2.13;;;7.70;86.00;;;;;;7402309;19;22439;-72
2023/12/17 04:53:49;;;;;;;5.82;2.22;;;7.70;86.30;;;;;;7401484;19;19914;-70
2023/12/17 04:56:16;;;;;;;5.40;2.65;;;7.70;86.60;;;;;;7403933;19;20306;-71
2023/12/17 04:58:42;;;;;;;7.00;2.90;;;7.90;87.50;;;;;;7399963;19;19914;-71
2023/12/17 05:01:07;;;;;;;6.38;2.10;;;7.80;85.80;;;;;;7401921;19;20215;-70
2023/12/17 05:03:33;;;;;;;6.80;3.20;;;7.70;86.00;;;;;;7403589;19;19927;-72
2023/12/17 05:05:59;;;;;;;6.47;2.50;;;7.80;86.90;;;;;;7404187;19;19994;-72
2023/12/17 05:08:25;;;;;;;5.93;2.90;;;7.90;86.60;;;;;;7400878;19;19923;-72
2023/12/17 05:10:50;;;;;;;5.72;2.60;;;7.90;85.50;;;;;;7404015;19;19919;-72
2023/12/17 05:13:16;;;;;;;6.25;2.60;;;7.90;84.70;;;;;;7400415;19;19930;-72
2023/12/17 05:15:43;;;;;;;7.18;2.70;;;7.80;84.70;;;;;;7401459;19;19921;-71
2023/12/17 05:18:08;;;;;;;5.18;2.83;;;7.70;86.10;;;;;;7401742;19;19962;-72
2023/12/17 05:20:34;;;;;;;6.50;2.33;;;7.70;87.60;;;;;;7401908;19;19931;-72
2023/12/17 05:23:00;;;;;;;4.78;2.30;;;7.70;86.40;;;;;;7401949;19;19931;-72
2023/12/17 05:25:26;;;;;;;5.22;2.00;;;7.80;86.00;;;;;;7401044;19;19986;-72
2023/12/17 05:27:52;;;;;;;5.50;2.30;;;7.80;85.20;;;;;;7405278;19;19919;-72
2023/12/17 05:30:18;;;;;;;5.40;2.20;;;7.80;84.00;;;;;;7400239;19;20014;-73
2023/12/17 05:32:44;;;;;;;4.97;2.05;;;7.70;84.30;;;;;;7400617;19;20303;-72
2023/12/17 05:35:10;;;;;;;6.95;3.08;;;7.70;85.30;;;;;;7402091;19;20018;-71
2023/12/17 05:37:35;;;;;;;4.28;1.98;;;7.60;85.60;;;;;;7402340;19;19936;-72
2023/12/17 05:40:02;;;;;;;5.10;2.17;;;7.50;85.90;;;;;;7405609;19;19934;-72
2023/12/17 05:42:28;;;;;;;4.05;2.42;;;7.50;86.40;;;;;;7404230;19;19978;-71
2023/12/17 05:44:54;;;;;;;7.32;2.47;;;7.50;88.10;;;;;;7403528;19;19922;-72
2023/12/17 05:47:19;;;;;;;5.72;2.28;;;7.50;87.00;;;;;;7399379;19;19918;-72
2023/12/17 05:49:45;;;;;;;5.60;2.00;;;7.50;87.30;;;;;;7401882;19;19926;-71
2023/12/17 05:52:11;;;;;;;7.07;2.75;;;7.50;88.20;;;;;;7400832;19;19914;-72
2023/12/17 05:54:38;;;;;;;7.55;2.58;;;7.50;88.40;;;;;;7401300;19;19934;-72
2023/12/17 05:57:04;;;;;;;;;;;7.40;88.30;;;;;;7400963;19;20357;-71
2023/12/17 05:59:30;;;;;;;5.32;2.50;;;7.40;88.70;;;;;;7397560;19;19923;-72
2023/12/17 06:01:55;;;;;;;4.72;1.90;;;7.40;89.00;;;;;;7400236;19;19918;-74
2023/12/17 06:04:21;;;;;;;6.45;1.75;;;7.50;88.50;;;;;;7399960;19;20761;-72
2023/12/17 06:06:47;;;;;;;6.25;2.28;;;7.50;88.30;;;;;;7399320;19;20253;-71
2023/12/17 06:09:13;;;;;;;4.47;2.47;;;7.40;89.00;;;;;;7398304;19;19915;-72
2023/12/17 06:11:38;;;;;;;4.00;2.20;;;7.40;89.80;;;;;;7402124;19;19925;-72
2023/12/17 06:14:04;;;;;;;5.65;2.80;;;7.40;89.70;;;;;;7401507;19;19914;-72
2023/12/17 06:16:30;;;;;;;6.15;2.50;;;7.40;90.00;;;;;;7400123;19;20331;-72
2023/12/17 06:18:56;;;;;;;6.03;1.98;;;7.50;90.20;;;;;;7401362;19;19910;-72
2023/12/17 06:21:27;;;;;;;5.07;1.77;;;7.50;89.60;;;;;;7398485;19;21201;-71
2023/12/17 06:23:57;;;;;;;5.38;2.30;;;7.60;90.00;;;;;;7399956;19;19930;-73
2023/12/17 06:26:24;;;;;;;4.97;2.20;;;7.60;88.70;;;;;;7397683;19;19929;-72
2023/12/17 06:28:50;;;;;;;;;;;7.50;89.10;;;;;;7402961;19;19914;-71
2023/12/17 06:31:16;;;;;;;6.70;2.22;;;7.50;89.50;;;;;;7397779;19;19952;-72
2023/12/17 06:33:43;;;;;;;5.88;2.05;;;7.40;89.50;;;;;;7400702;19;19934;-72
2023/12/17 06:36:09;;;;;;;5.38;2.17;;;7.50;89.90;;;;;;7397878;19;19911;-72
2023/12/17 06:38:34;;;;;;;6.68;2.00;;;7.50;90.50;;;;;;7399572;19;19927;-71
2023/12/17 06:41:00;;;;;;;5.50;2.40;;;7.40;89.90;;;;;;7399912;19;19930;-72
2023/12/17 06:43:26;;;;;;;3.80;1.90;;;7.40;91.00;;;;;;7395536;19;19918;-74
2023/12/17 06:45:52;;;;;;;7.18;2.10;;;7.60;90.30;;;;;;7401481;19;20934;-71
2023/12/17 06:48:18;;;;;;;9.60;2.30;;;7.50;90.60;;;;;;7374190;19;19918;-71
2023/12/17 06:50:44;;;;;;;8.20;2.35;;;7.40;90.40;;;;;;7395736;19;19919;-73
2023/12/17 06:53:15;;;;;;;5.78;2.88;;;7.40;90.40;;;;;;7400649;19;19918;-72
2023/12/17 06:55:42;;;;;;;6.05;2.60;;;7.40;90.60;;;;;;7398383;19;19919;-72
2023/12/17 06:58:08;;;;;;;7.63;2.65;;;7.30;90.90;;;;;;7380973;19;19930;-73
2023/12/17 07:00:36;;;;;;;4.72;2.03;;;7.30;91.30;;;;;;7402758;19;19935;-73
2023/12/17 07:03:02;;;;;;;6.03;2.53;;;7.30;91.20;;;;;;7379326;19;20301;-72
2023/12/17 07:05:28;;;;;;;7.57;2.38;;;7.30;91.60;;;;;;7401165;19;19922;-73
2023/12/17 07:07:54;;;;;;;7.05;3.08;;;7.20;91.70;;;;;;7399494;19;19914;-72
2023/12/17 07:10:20;;;;;;;8.45;3.90;;;7.30;92.30;;;;;;7397693;19;19923;-72
2023/12/17 07:12:47;;;;;;;7.72;3.95;;;7.30;92.00;;;;;;7405411;19;19973;-70
2023/12/17 07:15:13;;;;;;;4.65;2.60;;;7.30;91.80;;;;;;7404378;19;20336;-73
2023/12/17 07:17:39;;;;;;;6.63;2.92;;;7.40;92.50;;;;;;7405372;19;19918;-72
2023/12/17 07:20:06;;;;;;;7.63;3.10;;;7.60;90.70;;;;;;7402657;19;19927;-72
2023/12/17 07:22:32;;;;;;;7.45;3.70;;;7.40;90.80;;;;;;7401261;19;19925;-72
2023/12/17 07:24:58;;;;;;;7.45;3.20;;;7.50;90.80;;;;;;7407095;19;19922;-74
2023/12/17 07:27:24;;;;;;;12.02;5.10;;;7.60;90.40;;;;;;7403704;19;20343;-73
2023/12/17 07:29:50;;;;;;;10.07;3.20;;;7.80;90.50;;;;;;7403890;19;20004;-72
2023/12/17 07:32:15;;;;;;;6.78;3.10;;;7.90;89.80;;;;;;7405965;19;20263;-72
2023/12/17 07:34:41;;;;;;;7.20;3.22;;;7.90;88.40;;;;;;7405179;19;20292;-73
2023/12/17 07:37:07;;;;;;;6.82;2.72;;;7.90;88.80;;;;;;7404587;19;19926;-73
2023/12/17 07:39:33;;;;;;;6.75;2.85;;;7.90;88.20;;;;;;7402386;19;19927;-73
2023/12/17 07:41:59;;;;;;;7.25;2.80;;;8.00;88.10;;;;;;7402512;19;19941;-74
2023/12/17 07:44:27;;;;;;;7.70;3.22;;;8.10;87.70;;;;;;7404884;19;19919;-72
2023/12/17 07:46:53;;;;;;;7.30;3.22;;;8.30;85.60;;;;;;7403832;19;19931;-73
2023/12/17 07:49:19;;;;;;;6.57;3.20;;;8.30;84.80;;;;;;7404742;19;19922;-73
2023/12/17 07:51:45;;;;;;;5.18;3.00;;;8.30;84.50;;;;;;7404377;19;19933;-73
2023/12/17 07:54:11;;;;;;;7.60;3.33;;;8.30;85.00;;;;;;7401036;19;19918;-73
2023/12/17 07:56:36;;;;;;;7.47;3.22;;;8.40;84.50;;;;;;7405468;19;19929;-74
2023/12/17 07:59:02;;;;;;;6.43;3.20;;;8.50;84.30;;;;;;7400623;19;19919;-72
2023/12/17 08:01:32;;;;;;;7.25;4.07;;;8.50;84.50;;;;;;7406247;19;19918;-75
2023/12/17 08:03:58;;;;;;;6.45;3.13;;;8.50;84.10;;;;;;7404601;19;19911;-73
2023/12/17 08:06:24;;;;;;;6.57;3.00;;;8.60;83.90;;;;;;7405920;19;19965;-73
2023/12/17 08:08:52;;;;;;;6.80;3.42;;;8.90;83.10;;;;;;7403201;19;19917;-72
2023/12/17 08:11:17;;;;;;;7.57;4.35;;;9.00;81.20;;;;;;7403937;19;19922;-73
2023/12/17 08:13:45;;;;;;;9.23;4.35;;;10.30;82.30;;;;;;7402250;19;19936;-73
2023/12/17 08:16:10;;;;;;;;;;;12.00;77.20;;;;;;7405257;19;19967;-72
2023/12/17 08:18:36;;;;;;;7.65;4.05;;;13.30;66.20;;;;;;7398806;19;19910;-72
2023/12/17 08:21:02;;;;;;;8.00;4.30;;;14.30;55.20;;;;;;7405454;19;20052;-74
2023/12/17 08:23:29;;;;;;;6.38;4.07;;;15.00;47.50;;;;;;7402590;19;19922;-73
2023/12/17 08:25:55;;;;;;;8.02;3.70;;;15.40;42.10;;;;;;7404834;19;19933;-75
2023/12/17 08:28:22;;;;;;;6.50;3.63;;;16.10;36.70;;;;;;7402848;19;19919;-72
2023/12/17 08:30:48;;;;;;;7.38;3.70;;;16.20;33.50;;;;;;7406733;19;19918;-74
2023/12/17 08:33:16;;;;;;;;;;;16.30;32.80;;;;;;7406240;19;20019;-72
2023/12/17 08:35:43;;;;;;;6.80;4.00;;;16.80;32.20;;;;;;7397437;19;19914;-72
2023/12/17 08:38:09;;;;;;;7.80;2.97;;;17.20;29.30;;;;;;7408344;19;19915;-74
2023/12/17 08:40:39;;;;;;;8.27;3.95;;;17.40;27.30;;;;;;7409410;19;19914;-74
2023/12/17 08:43:09;;;;;;;7.25;3.42;;;17.60;25.40;;;;;;7402914;19;19919;-73
2023/12/17 08:45:35;;;;;;;6.93;3.25;;;17.70;27.30;;;;;;7403091;19;19935;-74
2023/12/17 08:48:03;;;;;;;7.00;2.85;;;17.00;27.10;;;;;;7400536;19;20618;-74
2023/12/17 08:50:28;;;;;;;7.55;3.10;;;16.10;28.50;;;;;;7399335;19;19910;-73
2023/12/17 08:52:55;;;;;;;7.38;3.15;;;15.20;31.20;;;;;;7400597;19;19930;-73
2023/12/17 08:55:21;;;;;;;8.27;3.25;;;14.30;35.70;;;;;;7400862;19;19979;-72
2023/12/17 08:57:47;;;;;;;11.00;3.33;;;13.60;39.30;;;;;;7402883;19;19918;-73
2023/12/17 09:00:13;;;;;;;6.38;2.58;;;13.40;41.80;;;;;;7400624;19;19939;-73
2023/12/17 09:02:41;;;;;;;5.97;3.08;;;13.30;42.60;;;;;;7402129;19;20391;-73
2023/12/17 09:05:07;;;;;;;10.20;4.20;;;13.20;43.70;;;;;;7400146;19;19961;-72
2023/12/17 09:07:32;;;;;;;8.00;3.55;;;13.10;44.50;;;;;;7401892;19;19926;-73
2023/12/17 09:09:58;;;;;;;7.88;3.70;;;13.20;45.70;;;;;;7403998;19;19929;-74
2023/12/17 09:12:24;;;;;;;7.15;3.38;;;13.20;45.30;;;;;;7403017;19;19936;-74
2023/12/17 09:14:50;;;;;;;8.30;3.92;;;13.20;45.90;;;;;;7400990;19;19928;-72
2023/12/17 09:17:16;;;;;;;9.20;3.60;;;13.20;46.20;;;;;;7395722;19;19926;-72
2023/12/17 09:19:44;;;;;;;7.93;3.30;;;13.30;45.60;;;;;;7403634;19;19926;-73
2023/12/17 09:22:09;;;;;;;8.55;4.65;;;13.40;45.10;;;;;;7400465;19;20003;-73
2023/12/17 09:24:36;;;;;;;10.23;4.65;;;13.70;43.80;;;;;;7400508;19;19919;-73
2023/12/17 09:27:04;;;;;;;7.93;3.40;;;14.20;41.70;;;;;;7397401;19;20001;-72
2023/12/17 09:29:30;;;;;;;8.98;4.03;;;14.50;37.20;;;;;;7402263;19;20303;-73
2023/12/17 09:31:56;;;;;;;6.50;4.57;;;14.70;34.00;;;;;;7405179;19;19918;-73
2023/12/17 09:34:22;;;;;;;7.28;4.93;;;14.90;32.00;;;;;;7398870;19;19929;-72
2023/12/17 09:36:48;;;;;;;7.05;4.63;;;14.90;31.30;;;;;;7399715;19;20029;-72
2023/12/17 09:39:14;;;;;;;7.25;4.65;;;14.90;31.10;;;;;;7399665;19;19914;-72
2023/12/17 09:41:42;;;;;;;9.88;5.55;;;14.80;30.60;;;;;;7401047;19;19914;-73
2023/12/17 09:44:08;;;;;;;7.63;5.45;;;15.10;30.00;;;;;;7401562;19;19914;-72
2023/12/17 09:46:35;;;;;;;8.90;5.38;;;15.30;29.50;;;;;;7403521;19;20347;-72
2023/12/17 09:49:01;;;;;;;8.38;5.38;;;15.50;29.20;;;;;;7402185;19;20331;-73
2023/12/17 09:51:28;;;;;;;9.05;4.80;;;15.50;28.60;;;;;;7401680;19;19918;-74
2023/12/17 09:53:56;;;;;;;7.78;4.78;;;15.50;28.20;;;;;;7404331;19;19921;-74
2023/12/17 09:56:22;;;;;;;7.57;5.30;;;15.60;28.50;;;;;;7403781;19;21648;-73
2023/12/17 09:58:48;;;;;;;9.07;5.30;;;15.70;27.30;;;;;;7404918;19;19926;-72
2023/12/17 10:01:15;;;;;;;7.93;5.70;;;15.70;27.20;;;;;;7397144;19;19915;-72
2023/12/17 10:03:41;;;;;;;7.97;5.57;;;15.90;26.60;;;;;;7403099;19;19922;-73
2023/12/17 10:06:07;;;;;;;9.52;6.03;;;16.10;25.50;;;;;;7397806;19;19918;-74
2023/12/17 10:08:34;;;;;;;8.38;5.30;;;16.30;25.60;;;;;;7404041;19;19929;-73
2023/12/17 10:11:00;;;;;;;9.15;5.82;;;16.50;24.90;;;;;;7404753;19;19918;-71
2023/12/17 10:13:26;;;;;;;9.68;6.13;;;16.60;24.50;;;;;;7403284;19;19929;-73
2023/12/17 10:15:55;;;;;;;9.15;6.03;;;16.70;24.60;;;;;;7401474;19;19986;-73
2023/12/17 10:18:22;;;;;;;8.18;6.47;;;17.10;23.40;;;;;;7397853;19;19937;-73
2023/12/17 10:20:48;;;;;;;;;;;17.40;22.50;;;;;;7399026;19;20359;-72
2023/12/17 10:23:14;;;;;;;9.73;6.15;;;17.30;21.80;;;;;;7389107;19;20033;-73
2023/12/17 10:25:41;;;;;;;9.65;5.72;;;17.60;21.40;;;;;;7391630;19;19918;-72
2023/12/17 10:28:10;;;;;;;10.95;5.57;;;17.80;20.00;;;;;;7389918;19;19918;-73
2023/12/17 10:30:37;;;;;;;8.00;5.43;;;17.70;19.70;;;;;;7389736;19;19917;-71
2023/12/17 10:33:05;;;;;;;10.27;5.53;;;17.50;21.00;;;;;;7394422;19;19922;-73
2023/12/17 10:35:32;;;;;;;7.85;5.85;;;18.00;19.60;;;;;;7398853;19;19942;-72
2023/12/17 10:38:05;;;;;;;8.48;6.13;;;18.10;18.70;;;;;;7400236;19;19922;-74
2023/12/17 10:40:36;;;;;;;8.82;6.00;;;18.30;18.80;;;;;;7397498;19;19933;-74
2023/12/17 10:43:04;;;;;;;7.95;5.80;;;18.20;17.70;;;;;;7399278;19;19914;-73
2023/12/17 10:45:31;;;;;;;8.65;6.45;;;18.40;17.50;;;;;;7393161;19;19926;-73
2023/12/17 10:47:59;;;;;;;9.20;6.68;;;18.50;17.30;;;;;;7402250;19;19918;-72
2023/12/17 10:50:26;;;;;;;7.63;6.50;;;18.80;17.40;;;;;;7404442;19;19925;-72
2023/12/17 10:52:52;;;;;;;7.57;6.05;;;19.00;16.60;;;;;;7403515;19;20340;-72
2023/12/17 10:55:19;;;;;;;7.25;5.63;;;19.30;15.90;;;;;;7402934;19;19932;-72
2023/12/17 10:57:47;;;;;;;;;;;19.60;14.90;;;;;;7410283;19;19922;-70
2023/12/17 11:00:15;;;;;;;8.45;6.53;;;19.90;14.50;;;;;;7397672;19;19922;-72
2023/12/17 11:02:43;;;;;;;9.55;6.65;;;20.60;13.40;;;;;;7401910;19;19926;-72
2023/12/17 11:05:08;;;;;;;9.38;6.43;;;20.70;11.60;;;;;;7402010;19;20572;-73
2023/12/17 11:07:34;;;;;;;10.90;6.93;;;21.20;11.20;;;;;;7369074;19;19934;-73
2023/12/17 11:10:01;;;;;;;10.07;6.60;;;21.50;9.70;;;;;;7392185;19;20549;-72
2023/12/17 11:12:27;;;;;;;8.40;6.70;;;21.80;9.10;;;;;;7404550;19;19931;-73
2023/12/17 11:14:54;;;;;;;10.63;6.78;;;21.70;8.70;;;;;;7404897;19;19922;-71
2023/12/17 11:17:20;;;;;;;9.82;7.18;;;21.80;9.10;;;;;;7405210;19;20331;-72
2023/12/17 11:19:56;;;;;;;8.30;6.35;;;22.00;7.90;;;;;;7407483;19;19918;-74
2023/12/17 11:22:23;;;;;;;8.07;6.80;;;21.80;8.00;;;;;;7407823;19;20258;-73
2023/12/17 11:24:56;;;;;;;11.23;6.90;;;21.80;8.40;;;;;;7406893;19;19918;-74
2023/12/17 11:27:22;;;;;;;9.32;7.35;;;21.80;7.70;;;;;;7406873;19;19925;-73
2023/12/17 11:29:55;;;;;;;9.40;7.07;;;22.00;7.60;;;;;;7403848;19;19961;-72
2023/12/17 11:32:22;;;;;;;9.23;6.07;;;22.30;6.60;;;;;;7407804;19;19914;-72
2023/12/17 11:34:50;;;;;;;9.13;5.82;;;22.30;6.00;;;;;;7407187;19;19919;-71
2023/12/17 11:37:20;;;;;;;11.05;7.43;;;22.40;5.10;;;;;;7405499;19;20425;-72
2023/12/17 11:39:50;;;;;;;9.02;6.88;;;22.80;4.30;;;;;;7408853;19;19975;-74
2023/12/17 11:42:17;;;;;;;9.13;7.40;;;22.90;3.60;;;;;;7406100;19;19919;-73
2023/12/17 11:44:52;;;;;;;11.57;7.50;;;23.20;2.80;;;;;;7408049;19;19931;-75
2023/12/17 11:47:28;;;;;;;8.80;6.88;;;23.20;2.20;;;;;;7404422;19;19918;-72
2023/12/17 11:50:01;;;;;;;9.40;7.60;;;23.60;1.60;;;;;;7406712;19;19934;-72
2023/12/17 11:52:28;;;;;;;7.97;6.85;;;23.50;1.40;;;;;;7405135;19;19954;-74
2023/12/17 11:55:02;;;;;;;8.48;6.30;;;23.60;1.00;;;;;;7409166;19;19914;-76
2023/12/17 11:57:33;;;;;;;10.13;7.53;;;23.30;1.00;;;;;;7405132;19;19974;-73
2023/12/17 11:59:59;;;;;;;8.85;6.03;;;24.00;1.00;;;;;;7407641;19;19915;-73
2023/12/17 12:02:33;;;;;;;8.02;5.80;;;24.30;1.00;;;;;;7402669;19;19939;-74
2023/12/17 12:04:59;;;;;;;8.02;6.57;;;24.40;1.00;;;;;;7405526;19;19919;-73
2023/12/17 12:07:24;;;;;;;9.07;7.32;;;24.50;1.00;;;;;;7402230;19;19914;-73
2023/12/17 12:10:07;;;;;;;8.82;7.07;;;24.70;1.00;;;;;;7403079;19;19926;-72
2023/12/17 12:12:33;;;;;;;9.80;8.68;;;24.90;1.00;;;;;;7403270;19;19922;-75
2023/12/17 12:14:59;;;;;;;9.05;7.72;;;24.60;1.00;;;;;;7405118;19;20438;-73
2023/12/17 12:17:39;;;;;;;11.38;7.85;;;24.20;1.00;;;;;;7405580;19;19923;-73
2023/12/17 12:20:13;;;;;;;10.13;7.88;;;24.50;1.00;;;;;;7383970;19;19914;-74
2023/12/17 12:22:44;;;;;;;11.73;7.25;;;24.30;1.00;;;;;;7405576;19;19911;-74
2023/12/17 12:25:10;;;;;;;8.50;7.10;;;24.00;1.00;;;;;;7407028;19;19919;-76
2023/12/17 12:27:38;;;;;;;9.00;7.57;;;24.40;1.00;;;;;;7405689;19;19938;-74
2023/12/17 12:30:10;;;;;;;8.55;6.82;;;24.60;1.00;;;;;;7405479;19;19919;-74
2023/12/17 12:32:35;;;;;;;9.48;7.57;;;24.00;1.00;;;;;;7383803;19;20603;-73
2023/12/17 12:35:03;;;;;;;14.80;7.70;;;24.00;1.00;;;;;;7403207;19;19951;-74
2023/12/17 12:37:36;;;;;;;8.02;6.38;;;24.80;1.00;;;;;;7404564;19;19935;-72
2023/12/17 12:40:06;;;;;;;8.48;6.80;;;25.50;1.00;;;;;;7403631;19;19918;-74
2023/12/17 12:42:33;;;;;;;8.50;6.30;;;25.70;1.00;;;;;;7404764;19;19921;-74
2023/12/17 12:45:00;;;;;;;11.27;7.68;;;25.50;1.00;;;;;;7381848;19;19914;-74
2023/12/17 12:47:26;;;;;;;;;;;24.90;1.00;;;;;;7407179;19;19919;-74
2023/12/17 12:49:52;;;;;;;11.07;7.07;;;24.30;1.00;;;;;;7405033;19;19914;-73
2023/12/17 12:52:20;;;;;;;9.35;6.75;;;24.70;1.00;;;;;;7400827;19;19930;-72